sensor_id;sensor_type;location;lat;lon;timestamp;pressure;altitude;pressure_sealevel;temperature;humidity
80393;BME280;69719;45.544;10.218;2023-07-29T00:01:15;99682.88;;;24.21;60.52
80393;BME280;69719;45.544;10.218;2023-07-29T00:03:41;99682.16;;;23.99;60.83
80393;BME280;69719;45.544;10.218;2023-07-29T00:06:06;99683.88;;;23.95;61.50
80393;BME280;69719;45.544;10.218;2023-07-29T00:08:32;99695.09;;;23.92;61.24
80393;BME280;69719;45.544;10.218;2023-07-29T00:10:57;99692.72;;;23.82;61.68
80393;BME280;69719;45.544;10.218;2023-07-29T00:13:23;99698.50;;;23.84;61.56
80393;BME280;69719;45.544;10.218;2023-07-29T00:15:48;99694.16;;;23.88;61.32
80393;BME280;69719;45.544;10.218;2023-07-29T00:18:14;99684.41;;;23.74;61.70
80393;BME280;69719;45.544;10.218;2023-07-29T00:20:39;99688.38;;;23.94;61.10
80393;BME280;69719;45.544;10.218;2023-07-29T00:23:05;99684.63;;;23.95;61.29
80393;BME280;69719;45.544;10.218;2023-07-29T00:25:30;99678.50;;;23.86;61.60
80393;BME280;69719;45.544;10.218;2023-07-29T00:27:56;99686.66;;;23.90;61.54
80393;BME280;69719;45.544;10.218;2023-07-29T00:30:21;99686.50;;;23.86;61.39
80393;BME280;69719;45.544;10.218;2023-07-29T00:32:47;99691.63;;;23.83;61.67
80393;BME280;69719;45.544;10.218;2023-07-29T00:35:13;99683.84;;;23.86;61.42
80393;BME280;69719;45.544;10.218;2023-07-29T00:37:38;99685.69;;;23.86;61.75
80393;BME280;69719;45.544;10.218;2023-07-29T00:40:13;99684.28;;;23.80;61.91
80393;BME280;69719;45.544;10.218;2023-07-29T00:42:40;99684.50;;;23.69;62.20
80393;BME280;69719;45.544;10.218;2023-07-29T00:45:06;99690.84;;;23.82;61.94
80393;BME280;69719;45.544;10.218;2023-07-29T00:47:33;99691.28;;;23.75;62.05
80393;BME280;69719;45.544;10.218;2023-07-29T00:49:58;99689.09;;;23.77;62.19
80393;BME280;69719;45.544;10.218;2023-07-29T00:52:24;99692.38;;;23.74;62.74
80393;BME280;69719;45.544;10.218;2023-07-29T00:54:50;99697.41;;;23.85;62.26
80393;BME280;69719;45.544;10.218;2023-07-29T00:57:16;99686.97;;;23.57;62.92
80393;BME280;69719;45.544;10.218;2023-07-29T00:59:43;99705.56;;;23.57;63.16
80393;BME280;69719;45.544;10.218;2023-07-29T01:02:09;99699.75;;;23.55;63.40
80393;BME280;69719;45.544;10.218;2023-07-29T01:04:34;99697.78;;;23.69;62.43
80393;BME280;69719;45.544;10.218;2023-07-29T01:12:21;99692.47;;;23.69;62.47
80393;BME280;69719;45.544;10.218;2023-07-29T01:17:29;99694.09;;;23.48;62.66
80393;BME280;69719;45.544;10.218;2023-07-29T01:20:08;99695.84;;;23.53;62.84
80393;BME280;69719;45.544;10.218;2023-07-29T01:22:35;99691.25;;;23.67;62.12
80393;BME280;69719;45.544;10.218;2023-07-29T01:25:01;99693.84;;;23.58;62.73
80393;BME280;69719;45.544;10.218;2023-07-29T01:27:27;99693.38;;;23.56;62.81
80393;BME280;69719;45.544;10.218;2023-07-29T01:29:54;99688.56;;;23.36;63.97
80393;BME280;69719;45.544;10.218;2023-07-29T01:37:26;99678.41;;;23.38;64.08
80393;BME280;69719;45.544;10.218;2023-07-29T01:39:56;99673.00;;;23.43;63.79
80393;BME280;69719;45.544;10.218;2023-07-29T01:42:24;99673.00;;;23.43;63.71
80393;BME280;69719;45.544;10.218;2023-07-29T01:44:50;99667.91;;;23.33;64.11
80393;BME280;69719;45.544;10.218;2023-07-29T01:47:16;99673.31;;;23.28;64.64
80393;BME280;69719;45.544;10.218;2023-07-29T01:49:41;99673.69;;;23.35;64.20
80393;BME280;69719;45.544;10.218;2023-07-29T01:52:07;99676.19;;;23.18;64.90
80393;BME280;69719;45.544;10.218;2023-07-29T01:54:32;99664.88;;;23.26;64.38
80393;BME280;69719;45.544;10.218;2023-07-29T01:56:58;99666.91;;;23.29;64.33
80393;BME280;69719;45.544;10.218;2023-07-29T01:59:23;99669.50;;;23.21;64.28
80393;BME280;69719;45.544;10.218;2023-07-29T02:01:49;99674.97;;;23.38;63.68
80393;BME280;69719;45.544;10.218;2023-07-29T02:04:14;99672.72;;;23.09;64.23
80393;BME280;69719;45.544;10.218;2023-07-29T02:06:40;99669.50;;;23.21;63.63
80393;BME280;69719;45.544;10.218;2023-07-29T02:09:06;99677.75;;;23.33;63.58
80393;BME280;69719;45.544;10.218;2023-07-29T02:11:31;99681.03;;;23.16;64.56
80393;BME280;69719;45.544;10.218;2023-07-29T02:13:57;99691.03;;;22.97;65.12
80393;BME280;69719;45.544;10.218;2023-07-29T02:16:23;99692.31;;;22.99;65.21
80393;BME280;69719;45.544;10.218;2023-07-29T02:18:49;99698.91;;;23.02;65.29
80393;BME280;69719;45.544;10.218;2023-07-29T02:21:17;99691.03;;;22.97;65.28
80393;BME280;69719;45.544;10.218;2023-07-29T02:23:43;99683.69;;;23.16;64.50
80393;BME280;69719;45.544;10.218;2023-07-29T02:26:08;99694.75;;;23.32;63.79
80393;BME280;69719;45.544;10.218;2023-07-29T02:28:34;99699.41;;;23.26;63.89
80393;BME280;69719;45.544;10.218;2023-07-29T02:33:36;99713.19;;;23.15;63.89
80393;BME280;69719;45.544;10.218;2023-07-29T02:36:01;99705.13;;;23.20;63.44
80393;BME280;69719;45.544;10.218;2023-07-29T02:38:27;99706.44;;;23.09;63.63
80393;BME280;69719;45.544;10.218;2023-07-29T02:40:52;99685.84;;;23.14;63.35
80393;BME280;69719;45.544;10.218;2023-07-29T02:43:18;99700.34;;;23.30;62.60
80393;BME280;69719;45.544;10.218;2023-07-29T02:45:43;99697.44;;;23.18;62.64
80393;BME280;69719;45.544;10.218;2023-07-29T02:48:09;99707.47;;;23.21;62.70
80393;BME280;69719;45.544;10.218;2023-07-29T02:50:34;99702.66;;;23.23;62.77
80393;BME280;69719;45.544;10.218;2023-07-29T02:53:00;99706.34;;;23.14;63.68
80393;BME280;69719;45.544;10.218;2023-07-29T02:55:26;99700.78;;;23.24;63.28
80393;BME280;69719;45.544;10.218;2023-07-29T02:57:52;99708.91;;;23.27;63.36
80393;BME280;69719;45.544;10.218;2023-07-29T03:00:17;99712.28;;;23.33;63.29
80393;BME280;69719;45.544;10.218;2023-07-29T03:02:43;99713.59;;;23.44;62.56
80393;BME280;69719;45.544;10.218;2023-07-29T03:05:09;99705.44;;;23.40;62.69
80393;BME280;69719;45.544;10.218;2023-07-29T03:07:34;99689.38;;;23.23;62.47
80393;BME280;69719;45.544;10.218;2023-07-29T03:09:59;99703.38;;;23.15;62.95
80393;BME280;69719;45.544;10.218;2023-07-29T03:12:25;99703.78;;;23.09;63.09
80393;BME280;69719;45.544;10.218;2023-07-29T03:14:51;99711.66;;;23.14;63.14
80393;BME280;69719;45.544;10.218;2023-07-29T03:17:17;99712.19;;;22.88;63.90
80393;BME280;69719;45.544;10.218;2023-07-29T03:19:42;99710.34;;;22.89;64.13
80393;BME280;69719;45.544;10.218;2023-07-29T03:22:08;99706.94;;;23.11;63.38
80393;BME280;69719;45.544;10.218;2023-07-29T03:24:33;99719.97;;;23.21;63.09
80393;BME280;69719;45.544;10.218;2023-07-29T03:26:59;99723.28;;;23.26;62.74
80393;BME280;69719;45.544;10.218;2023-07-29T03:29:24;99713.19;;;23.15;63.38
80393;BME280;69719;45.544;10.218;2023-07-29T03:31:50;99717.06;;;23.09;63.34
80393;BME280;69719;45.544;10.218;2023-07-29T03:34:15;99720.09;;;23.16;63.39
80393;BME280;69719;45.544;10.218;2023-07-29T03:36:41;99714.72;;;23.07;63.78
80393;BME280;69719;45.544;10.218;2023-07-29T03:39:06;99727.03;;;23.03;63.78
80393;BME280;69719;45.544;10.218;2023-07-29T03:41:33;99721.56;;;22.86;64.53
80393;BME280;69719;45.544;10.218;2023-07-29T03:43:58;99730.00;;;22.88;64.51
80393;BME280;69719;45.544;10.218;2023-07-29T03:46:24;99729.94;;;23.01;64.20
80393;BME280;69719;45.544;10.218;2023-07-29T03:48:50;99722.41;;;22.95;64.34
80393;BME280;69719;45.544;10.218;2023-07-29T03:51:15;99721.88;;;23.07;63.78
80393;BME280;69719;45.544;10.218;2023-07-29T03:53:41;99712.34;;;23.06;64.78
80393;BME280;69719;45.544;10.218;2023-07-29T03:56:07;99727.78;;;23.03;64.76
80393;BME280;69719;45.544;10.218;2023-07-29T03:58:33;99724.56;;;22.93;66.00
80393;BME280;69719;45.544;10.218;2023-07-29T04:00:58;99730.75;;;23.02;64.86
80393;BME280;69719;45.544;10.218;2023-07-29T04:03:24;99729.38;;;22.91;64.69
80393;BME280;69719;45.544;10.218;2023-07-29T04:05:49;99735.81;;;22.90;64.24
80393;BME280;69719;45.544;10.218;2023-07-29T04:08:15;99739.03;;;22.87;64.03
80393;BME280;69719;45.544;10.218;2023-07-29T04:10:40;99741.47;;;22.97;63.60
80393;BME280;69719;45.544;10.218;2023-07-29T04:13:06;99736.88;;;22.89;63.39
80393;BME280;69719;45.544;10.218;2023-07-29T04:15:31;99740.06;;;23.13;62.44
80393;BME280;69719;45.544;10.218;2023-07-29T04:17:57;99740.16;;;23.08;62.66
80393;BME280;69719;45.544;10.218;2023-07-29T04:20:23;99739.25;;;23.13;62.42
80393;BME280;69719;45.544;10.218;2023-07-29T04:22:48;99743.28;;;23.10;62.85
80393;BME280;69719;45.544;10.218;2023-07-29T04:25:14;99724.56;;;23.29;63.05
80393;BME280;69719;45.544;10.218;2023-07-29T04:27:39;99733.13;;;23.26;62.98
80393;BME280;69719;45.544;10.218;2023-07-29T04:30:05;99745.75;;;23.20;63.18
80393;BME280;69719;45.544;10.218;2023-07-29T04:32:31;99744.53;;;23.26;63.22
80393;BME280;69719;45.544;10.218;2023-07-29T04:34:56;99744.97;;;23.06;63.73
80393;BME280;69719;45.544;10.218;2023-07-29T04:37:22;99752.47;;;23.04;63.57
80393;BME280;69719;45.544;10.218;2023-07-29T04:39:47;99748.81;;;23.14;63.43
80393;BME280;69719;45.544;10.218;2023-07-29T04:42:13;99749.56;;;23.14;63.58
80393;BME280;69719;45.544;10.218;2023-07-29T04:44:38;99761.88;;;23.10;63.53
80393;BME280;69719;45.544;10.218;2023-07-29T04:47:04;99754.94;;;23.23;63.29
80393;BME280;69719;45.544;10.218;2023-07-29T04:49:29;99757.19;;;23.43;63.49
80393;BME280;69719;45.544;10.218;2023-07-29T04:51:55;99748.91;;;23.44;63.16
80393;BME280;69719;45.544;10.218;2023-07-29T04:54:20;99756.72;;;23.27;63.00
80393;BME280;69719;45.544;10.218;2023-07-29T04:56:46;99761.16;;;23.18;63.38
80393;BME280;69719;45.544;10.218;2023-07-29T04:59:12;99756.63;;;23.19;63.58
80393;BME280;69719;45.544;10.218;2023-07-29T05:01:38;99760.19;;;23.14;63.19
80393;BME280;69719;45.544;10.218;2023-07-29T05:04:04;99749.56;;;23.14;63.07
80393;BME280;69719;45.544;10.218;2023-07-29T05:06:29;99760.41;;;23.04;63.35
80393;BME280;69719;45.544;10.218;2023-07-29T05:08:57;99760.66;;;23.16;63.15
80393;BME280;69719;45.544;10.218;2023-07-29T05:11:23;99766.19;;;23.20;63.41
80393;BME280;69719;45.544;10.218;2023-07-29T05:13:50;99767.81;;;23.29;63.01
80393;BME280;69719;45.544;10.218;2023-07-29T05:16:16;99770.53;;;23.51;63.42
80393;BME280;69719;45.544;10.218;2023-07-29T05:18:41;99774.66;;;23.44;62.49
80393;BME280;69719;45.544;10.218;2023-07-29T05:21:07;99766.41;;;23.45;62.69
80393;BME280;69719;45.544;10.218;2023-07-29T05:23:33;99769.06;;;23.45;62.93
80393;BME280;69719;45.544;10.218;2023-07-29T05:25:59;99769.41;;;23.52;62.82
80393;BME280;69719;45.544;10.218;2023-07-29T05:28:24;99770.03;;;23.49;62.42
80393;BME280;69719;45.544;10.218;2023-07-29T05:30:50;99770.88;;;23.58;62.40
80393;BME280;69719;45.544;10.218;2023-07-29T05:33:16;99775.34;;;23.49;62.38
80393;BME280;69719;45.544;10.218;2023-07-29T05:35:41;99749.00;;;23.61;61.88
80393;BME280;69719;45.544;10.218;2023-07-29T05:38:07;99773.19;;;23.73;61.98
80393;BME280;69719;45.544;10.218;2023-07-29T05:40:33;99774.25;;;23.50;62.48
80393;BME280;69719;45.544;10.218;2023-07-29T05:42:59;99764.63;;;23.54;62.30
80393;BME280;69719;45.544;10.218;2023-07-29T05:45:24;99765.44;;;23.63;62.38
80393;BME280;69719;45.544;10.218;2023-07-29T05:47:50;99765.22;;;23.51;62.72
80393;BME280;69719;45.544;10.218;2023-07-29T05:50:15;99758.53;;;23.85;61.70
80393;BME280;69719;45.544;10.218;2023-07-29T05:52:41;99765.81;;;23.70;62.53
80393;BME280;69719;45.544;10.218;2023-07-29T05:55:07;99765.22;;;23.73;62.88
80393;BME280;69719;45.544;10.218;2023-07-29T05:57:32;99761.38;;;23.66;62.96
80393;BME280;69719;45.544;10.218;2023-07-29T05:59:58;99760.22;;;23.81;62.81
80393;BME280;69719;45.544;10.218;2023-07-29T06:02:23;99765.31;;;23.91;62.86
80393;BME280;69719;45.544;10.218;2023-07-29T06:04:49;99759.84;;;23.96;62.05
80393;BME280;69719;45.544;10.218;2023-07-29T06:07:14;99759.84;;;23.96;62.64
80393;BME280;69719;45.544;10.218;2023-07-29T06:09:40;99763.78;;;23.76;63.49
80393;BME280;69719;45.544;10.218;2023-07-29T06:12:06;99772.16;;;23.92;63.04
80393;BME280;69719;45.544;10.218;2023-07-29T06:14:32;99771.34;;;24.05;62.68
80393;BME280;69719;45.544;10.218;2023-07-29T06:16:57;99770.59;;;24.13;62.90
80393;BME280;69719;45.544;10.218;2023-07-29T06:19:22;99778.44;;;24.18;61.81
80393;BME280;69719;45.544;10.218;2023-07-29T06:21:48;99780.84;;;24.36;60.92
80393;BME280;69719;45.544;10.218;2023-07-29T06:24:14;99779.66;;;24.51;60.60
80393;BME280;69719;45.544;10.218;2023-07-29T06:26:39;99783.84;;;24.35;60.85
80393;BME280;69719;45.544;10.218;2023-07-29T06:29:05;99787.31;;;24.44;60.60
80393;BME280;69719;45.544;10.218;2023-07-29T06:31:30;99791.56;;;24.53;59.99
80393;BME280;69719;45.544;10.218;2023-07-29T06:33:58;99793.28;;;24.58;60.52
80393;BME280;69719;45.544;10.218;2023-07-29T06:36:23;99794.53;;;24.52;60.16
80393;BME280;69719;45.544;10.218;2023-07-29T06:38:49;99802.22;;;24.62;60.13
80393;BME280;69719;45.544;10.218;2023-07-29T06:41:14;99799.97;;;24.86;59.11
80393;BME280;69719;45.544;10.218;2023-07-29T06:43:40;99791.50;;;24.76;59.30
80393;BME280;69719;45.544;10.218;2023-07-29T06:46:05;99791.97;;;24.78;59.14
80393;BME280;69719;45.544;10.218;2023-07-29T06:48:31;99807.66;;;24.88;58.70
80393;BME280;69719;45.544;10.218;2023-07-29T06:50:56;99810.66;;;25.03;58.38
80393;BME280;69719;45.544;10.218;2023-07-29T06:53:26;99797.34;;;25.12;58.03
80393;BME280;69719;45.544;10.218;2023-07-29T06:55:52;99799.88;;;25.17;57.42
80393;BME280;69719;45.544;10.218;2023-07-29T06:58:17;99798.31;;;25.24;57.35
80393;BME280;69719;45.544;10.218;2023-07-29T07:00:43;99790.19;;;25.47;57.07
80393;BME280;69719;45.544;10.218;2023-07-29T07:03:08;99796.13;;;25.52;56.81
80393;BME280;69719;45.544;10.218;2023-07-29T07:05:34;99794.25;;;25.61;55.99
80393;BME280;69719;45.544;10.218;2023-07-29T07:07:59;99793.09;;;25.79;55.31
80393;BME280;69719;45.544;10.218;2023-07-29T07:10:25;99797.00;;;25.90;54.71
80393;BME280;69719;45.544;10.218;2023-07-29T07:12:50;99799.03;;;26.02;54.49
80393;BME280;69719;45.544;10.218;2023-07-29T07:15:16;99795.22;;;26.20;53.87
80393;BME280;69719;45.544;10.218;2023-07-29T07:17:41;99788.50;;;26.14;54.14
80393;BME280;69719;45.544;10.218;2023-07-29T07:20:07;99789.19;;;26.40;53.65
80393;BME280;69719;45.544;10.218;2023-07-29T07:22:32;99800.47;;;26.84;52.28
80393;BME280;69719;45.544;10.218;2023-07-29T07:24:58;99798.63;;;26.67;52.83
80393;BME280;69719;45.544;10.218;2023-07-29T07:27:23;99800.75;;;26.53;53.32
80393;BME280;69719;45.544;10.218;2023-07-29T07:29:49;99798.28;;;26.39;53.73
80393;BME280;69719;45.544;10.218;2023-07-29T07:32:15;99807.34;;;26.55;53.75
80393;BME280;69719;45.544;10.218;2023-07-29T07:34:40;99806.38;;;26.60;52.61
80393;BME280;69719;45.544;10.218;2023-07-29T07:37:07;99805.41;;;26.64;52.55
80393;BME280;69719;45.544;10.218;2023-07-29T07:39:32;99806.63;;;26.67;52.41
80393;BME280;69719;45.544;10.218;2023-07-29T07:41:58;99800.91;;;26.48;53.15
80393;BME280;69719;45.544;10.218;2023-07-29T07:44:23;99806.16;;;26.73;52.48
80393;BME280;69719;45.544;10.218;2023-07-29T07:46:52;99799.78;;;26.87;52.15
80393;BME280;69719;45.544;10.218;2023-07-29T07:49:17;99802.41;;;26.66;52.50
80393;BME280;69719;45.544;10.218;2023-07-29T07:51:46;99799.91;;;26.61;52.50
80393;BME280;69719;45.544;10.218;2023-07-29T07:54:11;99794.34;;;26.83;52.99
80393;BME280;69719;45.544;10.218;2023-07-29T07:56:37;99794.00;;;26.85;52.22
80393;BME280;69719;45.544;10.218;2023-07-29T07:59:02;99798.31;;;26.98;52.18
80393;BME280;69719;45.544;10.218;2023-07-29T08:01:34;99804.63;;;27.14;51.44
80393;BME280;69719;45.544;10.218;2023-07-29T08:03:59;99805.34;;;27.23;51.30
80393;BME280;69719;45.544;10.218;2023-07-29T08:06:25;99802.09;;;27.17;51.63
80393;BME280;69719;45.544;10.218;2023-07-29T08:08:51;99812.34;;;27.36;51.56
80393;BME280;69719;45.544;10.218;2023-07-29T08:11:16;99803.84;;;27.34;51.62
80393;BME280;69719;45.544;10.218;2023-07-29T08:13:42;99806.88;;;27.32;51.17
80393;BME280;69719;45.544;10.218;2023-07-29T08:16:07;99806.59;;;27.05;51.40
80393;BME280;69719;45.544;10.218;2023-07-29T08:18:33;99796.88;;;27.21;51.32
80393;BME280;69719;45.544;10.218;2023-07-29T08:21:00;99800.56;;;27.70;50.27
80393;BME280;69719;45.544;10.218;2023-07-29T08:23:33;99798.84;;;27.53;50.50
80393;BME280;69719;45.544;10.218;2023-07-29T08:26:01;99799.81;;;27.28;51.34
80393;BME280;69719;45.544;10.218;2023-07-29T08:28:31;99795.97;;;27.17;52.01
80393;BME280;69719;45.544;10.218;2023-07-29T08:30:57;99785.16;;;27.34;51.67
80393;BME280;69719;45.544;10.218;2023-07-29T08:33:22;99785.84;;;27.64;50.92
80393;BME280;69719;45.544;10.218;2023-07-29T08:35:48;99790.81;;;26.91;52.78
80393;BME280;69719;45.544;10.218;2023-07-29T08:38:13;99776.19;;;27.38;52.28
80393;BME280;69719;45.544;10.218;2023-07-29T08:40:44;99791.63;;;27.33;51.72
80393;BME280;69719;45.544;10.218;2023-07-29T08:43:12;99789.13;;;27.28;51.45
80393;BME280;69719;45.544;10.218;2023-07-29T08:45:39;99787.31;;;27.20;51.77
80393;BME280;69719;45.544;10.218;2023-07-29T08:48:10;99782.31;;;27.39;51.34
80393;BME280;69719;45.544;10.218;2023-07-29T08:50:36;99782.44;;;27.22;51.69
80393;BME280;69719;45.544;10.218;2023-07-29T08:53:05;99786.53;;;27.40;50.94
80393;BME280;69719;45.544;10.218;2023-07-29T08:55:31;99778.44;;;27.48;51.44
80393;BME280;69719;45.544;10.218;2023-07-29T08:57:58;99783.59;;;27.33;51.73
80393;BME280;69719;45.544;10.218;2023-07-29T09:00:25;99776.44;;;27.45;52.04
80393;BME280;69719;45.544;10.218;2023-07-29T09:02:51;99783.97;;;27.64;51.68
80393;BME280;69719;45.544;10.218;2023-07-29T09:05:17;99775.41;;;28.15;50.34
80393;BME280;69719;45.544;10.218;2023-07-29T09:07:44;99774.25;;;27.92;50.84
80393;BME280;69719;45.544;10.218;2023-07-29T09:10:13;99777.63;;;28.01;50.41
80393;BME280;69719;45.544;10.218;2023-07-29T09:12:39;99784.13;;;28.37;49.05
80393;BME280;69719;45.544;10.218;2023-07-29T09:15:05;99776.78;;;28.70;48.96
80393;BME280;69719;45.544;10.218;2023-07-29T09:17:34;99777.72;;;29.02;48.64
80393;BME280;69719;45.544;10.218;2023-07-29T09:20:00;99771.69;;;29.05;47.77
80393;BME280;69719;45.544;10.218;2023-07-29T09:22:27;99762.91;;;28.92;48.07
80393;BME280;69719;45.544;10.218;2023-07-29T09:24:53;99754.16;;;29.07;47.54
80393;BME280;69719;45.544;10.218;2023-07-29T09:27:28;99756.03;;;29.46;46.17
80393;BME280;69719;45.544;10.218;2023-07-29T09:29:57;99752.81;;;29.41;46.48
80393;BME280;69719;45.544;10.218;2023-07-29T09:32:24;99760.53;;;29.42;46.73
80393;BME280;69719;45.544;10.218;2023-07-29T09:34:50;99755.59;;;29.05;47.68
80393;BME280;69719;45.544;10.218;2023-07-29T09:37:23;99759.84;;;29.18;47.14
80393;BME280;69719;45.544;10.218;2023-07-29T09:39:49;99765.81;;;28.87;48.29
80393;BME280;69719;45.544;10.218;2023-07-29T09:42:19;99756.34;;;29.29;47.75
80393;BME280;69719;45.544;10.218;2023-07-29T09:44:46;99754.00;;;29.71;46.81
80393;BME280;69719;45.544;10.218;2023-07-29T09:47:25;99748.56;;;29.67;46.52
80393;BME280;69719;45.544;10.218;2023-07-29T09:49:52;99746.25;;;29.82;46.82
80393;BME280;69719;45.544;10.218;2023-07-29T09:52:20;99744.53;;;30.05;46.60
80393;BME280;69719;45.544;10.218;2023-07-29T09:54:49;99752.69;;;30.24;46.33
80393;BME280;69719;45.544;10.218;2023-07-29T09:57:18;99746.00;;;30.33;46.21
80393;BME280;69719;45.544;10.218;2023-07-29T09:59:54;99743.91;;;30.27;46.73
80393;BME280;69719;45.544;10.218;2023-07-29T10:02:20;99736.28;;;30.13;46.80
80393;BME280;69719;45.544;10.218;2023-07-29T10:04:46;99738.91;;;30.25;46.72
80393;BME280;69719;45.544;10.218;2023-07-29T10:07:12;99737.38;;;30.09;47.22
80393;BME280;69719;45.544;10.218;2023-07-29T10:09:39;99732.59;;;30.02;47.28
80393;BME280;69719;45.544;10.218;2023-07-29T10:12:06;99731.28;;;29.96;47.71
80393;BME280;69719;45.544;10.218;2023-07-29T10:14:32;99733.59;;;30.29;46.76
80393;BME280;69719;45.544;10.218;2023-07-29T10:16:58;99725.13;;;30.27;47.30
80393;BME280;69719;45.544;10.218;2023-07-29T10:19:25;99731.72;;;30.14;47.52
80393;BME280;69719;45.544;10.218;2023-07-29T10:21:51;99730.25;;;30.16;47.54
80393;BME280;69719;45.544;10.218;2023-07-29T10:24:25;99730.69;;;29.44;49.71
80393;BME280;69719;45.544;10.218;2023-07-29T10:26:58;99734.09;;;29.56;49.06
80393;BME280;69719;45.544;10.218;2023-07-29T10:29:24;99731.44;;;29.72;48.37
80393;BME280;69719;45.544;10.218;2023-07-29T10:31:52;99732.25;;;30.04;48.38
80393;BME280;69719;45.544;10.218;2023-07-29T10:34:21;99726.78;;;30.31;46.63
80393;BME280;69719;45.544;10.218;2023-07-29T10:36:48;99717.97;;;30.00;47.61
80393;BME280;69719;45.544;10.218;2023-07-29T10:39:14;99712.84;;;30.10;47.98
80393;BME280;69719;45.544;10.218;2023-07-29T10:42:00;99719.06;;;30.65;47.05
80393;BME280;69719;45.544;10.218;2023-07-29T10:44:46;99720.50;;;30.78;46.54
80393;BME280;69719;45.544;10.218;2023-07-29T10:49:44;99716.94;;;29.89;48.01
80393;BME280;69719;45.544;10.218;2023-07-29T10:52:14;99712.38;;;29.61;48.39
80393;BME280;69719;45.544;10.218;2023-07-29T10:54:46;99710.59;;;30.28;47.21
80393;BME280;69719;45.544;10.218;2023-07-29T10:57:15;99709.38;;;30.10;47.14
80393;BME280;69719;45.544;10.218;2023-07-29T10:59:53;99714.75;;;30.41;45.65
80393;BME280;69719;45.544;10.218;2023-07-29T11:02:20;99710.25;;;29.83;47.09
80393;BME280;69719;45.544;10.218;2023-07-29T11:04:46;99708.19;;;29.92;46.89
80393;BME280;69719;45.544;10.218;2023-07-29T11:09:59;99709.91;;;30.00;46.47
80393;BME280;69719;45.544;10.218;2023-07-29T11:12:47;99709.81;;;30.43;45.82
80393;BME280;69719;45.544;10.218;2023-07-29T11:15:25;99710.09;;;30.57;45.66
80393;BME280;69719;45.544;10.218;2023-07-29T11:20:22;99709.00;;;30.27;46.49
80393;BME280;69719;45.544;10.218;2023-07-29T11:22:47;99717.81;;;30.78;45.24
80393;BME280;69719;45.544;10.218;2023-07-29T11:25:15;99702.66;;;30.85;44.02
80393;BME280;69719;45.544;10.218;2023-07-29T11:27:41;99699.66;;;30.71;44.00
80393;BME280;69719;45.544;10.218;2023-07-29T11:30:08;99708.72;;;30.82;43.63
80393;BME280;69719;45.544;10.218;2023-07-29T11:32:35;99694.16;;;31.21;43.38
80393;BME280;69719;45.544;10.218;2023-07-29T11:35:06;99698.56;;;31.10;43.71
80393;BME280;69719;45.544;10.218;2023-07-29T11:37:36;99689.41;;;30.77;44.45
80393;BME280;69719;45.544;10.218;2023-07-29T11:40:02;99698.47;;;31.26;44.05
80393;BME280;69719;45.544;10.218;2023-07-29T11:42:28;99690.75;;;31.24;44.47
80393;BME280;69719;45.544;10.218;2023-07-29T11:44:57;99695.59;;;31.15;44.35
80393;BME280;69719;45.544;10.218;2023-07-29T11:47:23;99702.66;;;30.85;43.76
80393;BME280;69719;45.544;10.218;2023-07-29T11:49:49;99695.81;;;30.88;43.86
80393;BME280;69719;45.544;10.218;2023-07-29T11:52:14;99685.78;;;31.27;42.65
80393;BME280;69719;45.544;10.218;2023-07-29T11:54:44;99684.63;;;31.05;43.83
80393;BME280;69719;45.544;10.218;2023-07-29T11:57:10;99680.59;;;30.95;45.66
80393;BME280;69719;45.544;10.218;2023-07-29T11:59:36;99685.13;;;30.91;44.98
80393;BME280;69719;45.544;10.218;2023-07-29T12:02:07;99679.44;;;31.35;44.13
80393;BME280;69719;45.544;10.218;2023-07-29T12:04:34;99674.59;;;31.44;44.30
80393;BME280;69719;45.544;10.218;2023-07-29T12:07:00;99675.63;;;31.16;45.14
80393;BME280;69719;45.544;10.218;2023-07-29T12:09:27;99672.13;;;31.35;44.90
80393;BME280;69719;45.544;10.218;2023-07-29T12:11:53;99663.78;;;30.98;45.36
80393;BME280;69719;45.544;10.218;2023-07-29T12:14:19;99667.72;;;31.04;44.92
80393;BME280;69719;45.544;10.218;2023-07-29T12:16:48;99672.06;;;30.55;46.66
80393;BME280;69719;45.544;10.218;2023-07-29T12:19:15;99669.38;;;30.55;46.20
80393;BME280;69719;45.544;10.218;2023-07-29T12:21:42;99668.28;;;30.75;46.52
80393;BME280;69719;45.544;10.218;2023-07-29T12:24:08;99671.13;;;31.01;46.62
80393;BME280;69719;45.544;10.218;2023-07-29T12:26:35;99670.63;;;30.96;46.18
80393;BME280;69719;45.544;10.218;2023-07-29T12:29:15;99658.38;;;30.79;46.64
80393;BME280;69719;45.544;10.218;2023-07-29T12:31:41;99654.59;;;30.45;46.74
80393;BME280;69719;45.544;10.218;2023-07-29T12:34:07;99650.53;;;30.71;46.09
80393;BME280;69719;45.544;10.218;2023-07-29T12:36:43;99641.97;;;30.65;45.76
80393;BME280;69719;45.544;10.218;2023-07-29T12:39:25;99642.69;;;30.62;45.84
80393;BME280;69719;45.544;10.218;2023-07-29T12:41:53;99637.00;;;30.67;45.56
80393;BME280;69719;45.544;10.218;2023-07-29T12:44:20;99638.97;;;30.86;45.72
80393;BME280;69719;45.544;10.218;2023-07-29T12:46:46;99632.78;;;30.47;46.92
80393;BME280;69719;45.544;10.218;2023-07-29T12:49:11;99626.34;;;30.71;46.73
80393;BME280;69719;45.544;10.218;2023-07-29T12:51:37;99631.09;;;30.77;46.33
80393;BME280;69719;45.544;10.218;2023-07-29T12:54:04;99638.75;;;30.94;45.42
80393;BME280;69719;45.544;10.218;2023-07-29T12:56:30;99637.38;;;31.27;43.72
80393;BME280;69719;45.544;10.218;2023-07-29T12:58:57;99622.31;;;31.41;43.86
80393;BME280;69719;45.544;10.218;2023-07-29T13:01:26;99622.88;;;31.08;44.31
80393;BME280;69719;45.544;10.218;2023-07-29T13:03:52;99622.38;;;31.45;44.24
80393;BME280;69719;45.544;10.218;2023-07-29T13:06:18;99615.72;;;31.39;44.43
80393;BME280;69719;45.544;10.218;2023-07-29T13:08:44;99609.44;;;31.31;44.47
80393;BME280;69719;45.544;10.218;2023-07-29T13:11:10;99610.97;;;31.09;44.34